Thursday, October 19, 2017, 7:09 AM EDT
Back to Local

KCQX, Chatham Municipal Airport

Location: Chatham, MA, United States Lat: 41.683
Local Time: 7:09 AM EDT (11:09 GMT) Lon: -70
Time Zone: US/Eastern Elev: 68 ft

Show me the last for .
Show Decoded

2017-10-19 07:01 METAR KCQX 191101Z AUTO 20003KT 5SM BR BKN007 14/14 A3027 RMK AO2 T01440144 =
2017-10-19 06:52 METAR KCQX 191052Z AUTO 21003KT 6SM BR SCT007 14/14 A3027 RMK AO2 SLP250
                 T01440144 =
2017-10-19 06:42 METAR KCQX 191042Z AUTO 21003KT 9SM SCT007 14/14 A3027 RMK AO2 T01440144 =
2017-10-19 06:20 METAR KCQX 191020Z AUTO 21004KT 9SM BKN007 14/14 A3027 RMK AO2 T01440144 =
2017-10-19 06:07 METAR KCQX 191007Z AUTO 21005KT 8SM SCT007 14/14 A3027 RMK AO2 T01440144 =
2017-10-19 05:52 METAR KCQX 190952Z AUTO 22004KT 10SM CLR 14/14 A3027 RMK AO2 SLP252 T01440144 =
2017-10-19 04:52 METAR KCQX 190852Z AUTO 22004KT 10SM CLR 14/14 A3027 RMK AO2 SLP251 T01440144
                 55004 =
2017-10-19 03:52 METAR KCQX 190752Z AUTO 22006KT 10SM CLR 14/14 A3027 RMK AO2 SLP251 T01440144 =
2017-10-19 02:52 METAR KCQX 190652Z AUTO 23005KT 10SM CLR 14/14 A3027 RMK AO2 SLP252 T01440139 =
2017-10-19 01:52 METAR KCQX 190552Z AUTO 22003KT 10SM CLR 14/14 A3028 RMK AO2 SLP255 T01440139
                 10150 20139 58006 =
2017-10-19 00:52 METAR KCQX 190452Z AUTO 23004KT 10SM CLR 14/14 A3029 RMK AO2 SLP258 T01440139
                 402000089 =
2017-10-18 23:52 METAR KCQX 190352Z AUTO 23004KT 10SM CLR 14/13 A3029 RMK AO2 SLP259 T01440133 =
2017-10-18 22:52 METAR KCQX 190252Z AUTO 22003KT 10SM CLR 14/13 A3030 RMK AO2 SLP261 T01390128
                 51005 =
2017-10-18 21:52 METAR KCQX 190152Z AUTO 23003KT 10SM CLR 14/13 A3030 RMK AO2 SLP262 T01440133 =
2017-10-18 20:52 METAR KCQX 190052Z AUTO 23004KT 10SM CLR 15/14 A3030 RMK AO2 SLP260 T01500139 =
2017-10-18 19:52 METAR KCQX 182352Z AUTO 23003KT 10SM CLR 14/13 A3028 RMK AO2 SLP256 T01440128
                 10200 20139 51014 =
2017-10-18 18:52 METAR KCQX 182252Z AUTO 00000KT 10SM CLR 14/12 A3028 RMK AO2 SLP255 T01440122 =
2017-10-18 17:52 METAR KCQX 182152Z AUTO 00000KT 10SM CLR 16/12 A3025 RMK AO2 SLP246 T01610122 =
2017-10-18 16:52 METAR KCQX 182052Z AUTO VRB03KT 10SM CLR 18/12 A3024 RMK AO2 SLP242 T01830122
                 50004 =
2017-10-18 15:52 METAR KCQX 181952Z AUTO VRB06KT 10SM CLR 18/13 A3024 RMK AO2 SLP242 T01830128 =
2017-10-18 14:52 METAR KCQX 181852Z AUTO VRB04KT 10SM CLR 20/09 A3024 RMK AO2 SLP240 T02000089 =
2017-10-18 13:52 METAR KCQX 181752Z AUTO 29006KT 10SM CLR 20/09 A3023 RMK AO2 SLP238 T02000089
                 10200 20144 58014 =
2017-10-18 12:52 METAR KCQX 181652Z AUTO VRB05KT 10SM CLR 19/08 A3025 RMK AO2 SLP246 T01890083 =
2017-10-18 11:52 METAR KCQX 181552Z AUTO 10SM CLR 19/08 A3027 RMK AO2 SLP252 T01940083 =
2017-10-18 10:52 METAR KCQX 181452Z AUTO VRB04G14KT 10SM CLR 18/08 A3027 RMK AO2 SLP252 T01830078
                 51005 =
2017-10-18 09:52 METAR KCQX 181352Z AUTO 25005KT 10SM CLR 17/09 A3027 RMK AO2 SLP251 T01720089 =
2017-10-18 08:52 METAR KCQX 181252Z AUTO 25007KT 220V290 10SM CLR 16/08 A3027 RMK AO2 SLP251
                 T01560083 =
2017-10-18 07:52 METAR KCQX 181152Z AUTO 25006KT 10SM CLR 14/08 A3026 RMK AO2 SLP247 T01440083
                 10144 20094 53007 =

Support USWX by starting your Amazon purchase here.